LFAC 261500Z AUTO 34014KT 9999 SCT023 SCT028 OVC043 17/13 Q1019

ElémentsDécodage
LFAC Station météo située sur l'aérodrome de CALAIS Dunkerque
261500Z émis le 26 du mois à 15h00 UTC
AUTO Bulletin édité par un automate
34014KT vent du 340°, 14 noeuds
9999 visibilité horizontale supérieure à 10 Km
SCT023 nuages épars (3/8 à 4/8) à 2300 pieds
SCT028 nuages épars (3/8 à 4/8) à 2800 pieds
OVC043 couverture nuageuse totale (8/8) à 4300 pieds
17/13 température 17°C, point de rosée 13°C
 soit une humidité relative de 77%
Q1019 la pression au niveau de la mer (QNH) est de 1019 hPa